RYR86DZ EBCI-LFMU
Flight info
| Callsign | RYR86DZ |
|---|---|
| Flight time | 1h 16m |
| Altitude | 39000 |
| Route | CIV Y50 REM B3 VATRI G40 TRO B373 MOU A27 MEN J27 AFRIC |
| Aircraft | B738/M-SDE3FGILRWY/SB1 |
Departure
| Time | 2026-04-22 10:22 |
|---|---|
| Airport | Brussels South Charleroi Airport (EBCI) |
Arrival
| Time | 2026-04-22 11:39 |
|---|---|
| Airport | Béziers Vias airport (LFMU) |
| Time | Latitude | Longitude | Altitude | Speed | Heading |
|---|---|---|---|---|---|
| 2026-04-22 09:52 | 50.46927 | 4.47287 | 625 ft | 0 kts | 335° |
| 2026-04-22 10:13 | 50.46909 | 4.47300 | 627 ft | 4 kts | 335° |
| 2026-04-22 10:13 | 50.46887 | 4.47317 | 616 ft | 4 kts | 313° |
| 2026-04-22 10:13 | 50.46882 | 4.47345 | 618 ft | 3 kts | 246° |
| 2026-04-22 10:13 | 50.46890 | 4.47375 | 623 ft | 3 kts | 245° |
| 2026-04-22 10:14 | 50.46892 | 4.47379 | 622 ft | 1 kts | 245° |
| 2026-04-22 10:18 | 50.46890 | 4.47373 | 621 ft | 3 kts | 245° |
| 2026-04-22 10:18 | 50.46849 | 4.47327 | 617 ft | 12 kts | 181° |
| 2026-04-22 10:18 | 50.46763 | 4.47327 | 616 ft | 13 kts | 226° |
| 2026-04-22 10:18 | 50.46722 | 4.47199 | 614 ft | 13 kts | 245° |
| 2026-04-22 10:19 | 50.46684 | 4.47068 | 619 ft | 14 kts | 245° |
| 2026-04-22 10:19 | 50.46642 | 4.46924 | 614 ft | 16 kts | 246° |
| 2026-04-22 10:19 | 50.46592 | 4.46750 | 621 ft | 20 kts | 245° |
| 2026-04-22 10:19 | 50.46524 | 4.46517 | 618 ft | 28 kts | 245° |
| 2026-04-22 10:20 | 50.46440 | 4.46222 | 615 ft | 30 kts | 245° |
| 2026-04-22 10:20 | 50.46355 | 4.45938 | 615 ft | 28 kts | 245° |
| 2026-04-22 10:20 | 50.46278 | 4.45670 | 624 ft | 26 kts | 246° |
| 2026-04-22 10:20 | 50.46206 | 4.45420 | 615 ft | 24 kts | 245° |
| 2026-04-22 10:21 | 50.46137 | 4.45189 | 614 ft | 23 kts | 245° |
| 2026-04-22 10:21 | 50.46072 | 4.44966 | 622 ft | 22 kts | 246° |
| 2026-04-22 10:21 | 50.45998 | 4.44769 | 616 ft | 18 kts | 195° |
| 2026-04-22 10:21 | 50.45882 | 4.44834 | 620 ft | 18 kts | 132° |
| 2026-04-22 10:22 | 50.45914 | 4.45032 | 621 ft | 36 kts | 66° |
| 2026-04-22 10:22 | 50.46147 | 4.45837 | 613 ft | 122 kts | 66° |
| 2026-04-22 10:22 | 50.46561 | 4.47341 | 974 ft | 165 kts | 66° |
| 2026-04-22 10:22 | 50.47064 | 4.49089 | 1896 ft | 185 kts | 60° |
| 2026-04-22 10:23 | 50.47992 | 4.50623 | 2588 ft | 204 kts | 44° |
| 2026-04-22 10:23 | 50.49005 | 4.52199 | 3421 ft | 206 kts | 55° |
| 2026-04-22 10:23 | 50.49906 | 4.53941 | 4096 ft | 214 kts | 52° |
| 2026-04-22 10:23 | 50.50916 | 4.55730 | 4631 ft | 223 kts | 51° |
| 2026-04-22 10:24 | 50.51951 | 4.57558 | 5368 ft | 225 kts | 52° |
| 2026-04-22 10:24 | 50.53083 | 4.59330 | 5890 ft | 243 kts | 38° |
| 2026-04-22 10:24 | 50.54734 | 4.60293 | 6471 ft | 266 kts | 11° |
| 2026-04-22 10:24 | 50.56618 | 4.60038 | 7360 ft | 278 kts | 346° |
| 2026-04-22 10:25 | 50.58302 | 4.58462 | 8302 ft | 290 kts | 318° |
| 2026-04-22 10:25 | 50.59377 | 4.55745 | 9175 ft | 300 kts | 289° |
| 2026-04-22 10:25 | 50.59669 | 4.52487 | 10094 ft | 304 kts | 271° |
| 2026-04-22 10:25 | 50.59608 | 4.49124 | 10772 ft | 314 kts | 267° |
| 2026-04-22 10:26 | 50.59452 | 4.45552 | 10993 ft | 340 kts | 266° |
| 2026-04-22 10:26 | 50.59277 | 4.41758 | 11546 ft | 352 kts | 266° |
| 2026-04-22 10:26 | 50.59116 | 4.37891 | 12429 ft | 355 kts | 267° |
| 2026-04-22 10:26 | 50.58974 | 4.34002 | 13330 ft | 358 kts | 267° |
| 2026-04-22 10:27 | 50.58843 | 4.30061 | 14180 ft | 363 kts | 268° |
| 2026-04-22 10:27 | 50.58722 | 4.26072 | 14978 ft | 367 kts | 268° |
| 2026-04-22 10:27 | 50.58602 | 4.22040 | 15792 ft | 371 kts | 268° |
| 2026-04-22 10:27 | 50.58480 | 4.17963 | 16617 ft | 375 kts | 268° |
| 2026-04-22 10:28 | 50.58357 | 4.13847 | 17447 ft | 379 kts | 268° |
| 2026-04-22 10:28 | 50.58231 | 4.09687 | 18248 ft | 383 kts | 268° |
| 2026-04-22 10:28 | 50.58104 | 4.05482 | 18988 ft | 387 kts | 268° |
| 2026-04-22 10:28 | 50.57974 | 4.01242 | 19700 ft | 390 kts | 268° |
| 2026-04-22 10:29 | 50.57840 | 3.96963 | 20420 ft | 393 kts | 268° |
| 2026-04-22 10:29 | 50.57323 | 3.92730 | 21055 ft | 399 kts | 248° |
| 2026-04-22 10:29 | 50.55910 | 3.89046 | 21738 ft | 401 kts | 228° |
| 2026-04-22 10:29 | 50.53760 | 3.86279 | 22390 ft | 403 kts | 207° |
| 2026-04-22 10:30 | 50.51121 | 3.84789 | 23006 ft | 404 kts | 188° |
| 2026-04-22 10:30 | 50.48322 | 3.84679 | 23631 ft | 404 kts | 173° |
| 2026-04-22 10:30 | 50.45516 | 3.85175 | 24164 ft | 408 kts | 171° |
| 2026-04-22 10:30 | 50.42679 | 3.85755 | 24583 ft | 414 kts | 171° |
| 2026-04-22 10:31 | 50.39801 | 3.86319 | 25017 ft | 419 kts | 172° |
| 2026-04-22 10:31 | 50.36887 | 3.86839 | 25502 ft | 423 kts | 173° |
| 2026-04-22 10:31 | 50.33944 | 3.87337 | 25941 ft | 428 kts | 174° |
| 2026-04-22 10:31 | 50.30966 | 3.87835 | 26420 ft | 432 kts | 174° |
| 2026-04-22 10:32 | 50.27972 | 3.88338 | 26894 ft | 435 kts | 174° |
| 2026-04-22 10:32 | 50.24949 | 3.88848 | 27338 ft | 438 kts | 174° |
| 2026-04-22 10:32 | 50.21899 | 3.89362 | 27718 ft | 444 kts | 175° |
| 2026-04-22 10:32 | 50.18811 | 3.89883 | 28103 ft | 449 kts | 175° |
| 2026-04-22 10:33 | 50.15691 | 3.90408 | 28490 ft | 453 kts | 175° |
| 2026-04-22 10:33 | 50.12545 | 3.90937 | 28883 ft | 457 kts | 176° |
| 2026-04-22 10:33 | 50.09372 | 3.91470 | 29264 ft | 461 kts | 176° |
| 2026-04-22 10:33 | 50.06171 | 3.92010 | 29622 ft | 465 kts | 176° |
| 2026-04-22 10:34 | 50.02936 | 3.92558 | 29965 ft | 469 kts | 176° |
| 2026-04-22 10:34 | 49.99676 | 3.93110 | 30322 ft | 473 kts | 177° |
| 2026-04-22 10:34 | 49.96396 | 3.93666 | 30604 ft | 476 kts | 177° |
| 2026-04-22 10:34 | 49.93091 | 3.94226 | 30933 ft | 479 kts | 177° |
| 2026-04-22 10:35 | 49.89773 | 3.94786 | 31249 ft | 481 kts | 177° |
| 2026-04-22 10:35 | 49.86441 | 3.95348 | 31550 ft | 483 kts | 177° |
| 2026-04-22 10:35 | 49.83093 | 3.95912 | 31863 ft | 485 kts | 177° |
| 2026-04-22 10:35 | 49.79738 | 3.96476 | 32260 ft | 484 kts | 177° |
| 2026-04-22 10:36 | 49.76394 | 3.97039 | 32702 ft | 483 kts | 177° |
| 2026-04-22 10:36 | 49.73058 | 3.97602 | 33141 ft | 482 kts | 177° |
| 2026-04-22 10:36 | 49.69726 | 3.98163 | 33495 ft | 482 kts | 177° |
| 2026-04-22 10:36 | 49.66390 | 3.98724 | 33839 ft | 483 kts | 178° |
| 2026-04-22 10:37 | 49.63051 | 3.99285 | 34197 ft | 483 kts | 178° |
| 2026-04-22 10:37 | 49.56366 | 4.00406 | 34828 ft | 482 kts | 178° |
| 2026-04-22 10:37 | 49.53035 | 4.00961 | 35172 ft | 481 kts | 178° |
| 2026-04-22 10:38 | 49.49751 | 4.01506 | 35480 ft | 481 kts | 178° |
| 2026-04-22 10:38 | 49.46428 | 4.02056 | 35775 ft | 481 kts | 178° |
| 2026-04-22 10:38 | 49.43097 | 4.02608 | 36085 ft | 480 kts | 177° |
| 2026-04-22 10:38 | 49.39777 | 4.03157 | 36421 ft | 479 kts | 177° |
| 2026-04-22 10:39 | 49.36468 | 4.03700 | 36744 ft | 478 kts | 177° |
| 2026-04-22 10:39 | 49.33157 | 4.04215 | 37042 ft | 478 kts | 178° |
| 2026-04-22 10:39 | 49.29857 | 4.04623 | 37326 ft | 476 kts | 181° |
| 2026-04-22 10:39 | 49.26545 | 4.04743 | 37631 ft | 474 kts | 183° |
| 2026-04-22 10:40 | 49.23256 | 4.04762 | 37938 ft | 473 kts | 183° |
| 2026-04-22 10:40 | 49.21074 | 4.04768 | 38142 ft | 472 kts | 183° |
| 2026-04-22 10:40 | 49.17791 | 4.04804 | 38446 ft | 472 kts | 182° |
| 2026-04-22 10:40 | 49.14513 | 4.04872 | 38765 ft | 470 kts | 182° |
| 2026-04-22 10:41 | 49.11246 | 4.04956 | 39038 ft | 469 kts | 182° |
| 2026-04-22 10:41 | 49.07986 | 4.05045 | 39216 ft | 469 kts | 182° |
| 2026-04-22 10:41 | 49.04707 | 4.05134 | 39218 ft | 472 kts | 182° |
| 2026-04-22 10:42 | 48.99012 | 4.05287 | 39219 ft | 471 kts | 182° |
| 2026-04-22 10:42 | 48.92495 | 4.05459 | 39201 ft | 466 kts | 182° |
| 2026-04-22 10:43 | 48.86034 | 4.05627 | 39209 ft | 463 kts | 182° |
| 2026-04-22 10:43 | 48.79610 | 4.05793 | 39212 ft | 460 kts | 182° |
| 2026-04-22 10:44 | 48.73209 | 4.05918 | 39212 ft | 460 kts | 182° |
| 2026-04-22 10:44 | 48.66806 | 4.06017 | 39205 ft | 461 kts | 183° |
| 2026-04-22 10:45 | 48.60385 | 4.06124 | 39205 ft | 462 kts | 183° |
| 2026-04-22 10:45 | 48.53973 | 4.05716 | 39178 ft | 458 kts | 195° |
| 2026-04-22 10:46 | 48.47746 | 4.03674 | 39179 ft | 459 kts | 197° |
| 2026-04-22 10:46 | 48.41508 | 4.01559 | 39186 ft | 461 kts | 197° |
| 2026-04-22 10:47 | 48.35231 | 3.99527 | 39187 ft | 462 kts | 196° |
| 2026-04-22 10:47 | 48.28933 | 3.97522 | 39183 ft | 463 kts | 197° |
| 2026-04-22 10:48 | 48.22616 | 3.95643 | 39181 ft | 464 kts | 193° |
| 2026-04-22 10:48 | 48.16225 | 3.94288 | 39170 ft | 464 kts | 192° |
| 2026-04-22 10:49 | 48.09847 | 3.92976 | 39167 ft | 462 kts | 193° |
| 2026-04-22 10:49 | 48.03499 | 3.91601 | 39147 ft | 460 kts | 193° |
| 2026-04-22 10:50 | 47.97181 | 3.90222 | 39139 ft | 458 kts | 193° |
| 2026-04-22 10:50 | 47.90931 | 3.88859 | 39132 ft | 456 kts | 193° |
| 2026-04-22 10:51 | 47.84650 | 3.87492 | 39119 ft | 455 kts | 193° |
| 2026-04-22 10:51 | 47.78393 | 3.86134 | 39116 ft | 454 kts | 193° |
| 2026-04-22 10:52 | 47.72152 | 3.84783 | 39122 ft | 453 kts | 193° |
| 2026-04-22 10:52 | 47.65920 | 3.83437 | 39117 ft | 453 kts | 193° |
| 2026-04-22 10:53 | 47.59685 | 3.82093 | 39112 ft | 453 kts | 193° |
| 2026-04-22 10:53 | 47.53452 | 3.80752 | 39104 ft | 453 kts | 193° |
| 2026-04-22 10:54 | 47.47213 | 3.79405 | 39104 ft | 453 kts | 193° |
| 2026-04-22 10:54 | 47.40965 | 3.78056 | 39103 ft | 454 kts | 193° |
| 2026-04-22 10:55 | 47.34696 | 3.76705 | 39100 ft | 456 kts | 193° |
| 2026-04-22 10:55 | 47.28410 | 3.75356 | 39086 ft | 457 kts | 193° |
| 2026-04-22 10:56 | 47.22125 | 3.74011 | 39095 ft | 456 kts | 193° |
| 2026-04-22 10:56 | 47.15846 | 3.72670 | 39084 ft | 456 kts | 193° |
| 2026-04-22 10:57 | 47.09566 | 3.71332 | 39084 ft | 456 kts | 193° |
| 2026-04-22 10:57 | 47.03296 | 3.69999 | 39083 ft | 455 kts | 193° |
| 2026-04-22 10:58 | 46.97032 | 3.68670 | 39085 ft | 455 kts | 193° |
| 2026-04-22 10:58 | 46.90763 | 3.67348 | 39080 ft | 455 kts | 193° |
| 2026-04-22 10:59 | 46.84498 | 3.66051 | 39081 ft | 455 kts | 193° |
| 2026-04-22 10:59 | 46.78240 | 3.64758 | 39078 ft | 454 kts | 193° |
| 2026-04-22 11:00 | 46.71984 | 3.63462 | 39073 ft | 453 kts | 194° |
| 2026-04-22 11:00 | 46.65988 | 3.61059 | 39079 ft | 445 kts | 204° |
| 2026-04-22 11:01 | 46.60180 | 3.58097 | 39084 ft | 445 kts | 204° |
| 2026-04-22 11:01 | 46.54315 | 3.55193 | 39075 ft | 445 kts | 204° |
| 2026-04-22 11:02 | 46.48439 | 3.52344 | 39077 ft | 445 kts | 203° |
| 2026-04-22 11:02 | 46.42556 | 3.49523 | 39072 ft | 445 kts | 203° |
| 2026-04-22 11:03 | 46.36680 | 3.46711 | 39078 ft | 444 kts | 203° |
| 2026-04-22 11:03 | 46.30815 | 3.43907 | 39067 ft | 444 kts | 203° |
| 2026-04-22 11:04 | 46.24952 | 3.41107 | 39080 ft | 444 kts | 203° |
| 2026-04-22 11:04 | 46.19090 | 3.38316 | 39074 ft | 443 kts | 203° |
| 2026-04-22 11:05 | 46.13231 | 3.35529 | 39071 ft | 443 kts | 204° |
| 2026-04-22 11:05 | 46.07382 | 3.32749 | 39073 ft | 443 kts | 204° |
| 2026-04-22 11:06 | 46.01532 | 3.29974 | 39072 ft | 442 kts | 204° |
| 2026-04-22 11:06 | 45.95685 | 3.27206 | 39065 ft | 442 kts | 204° |
| 2026-04-22 11:06 | 45.92758 | 3.25823 | 38943 ft | 445 kts | 204° |
| 2026-04-22 11:07 | 45.89797 | 3.24423 | 38436 ft | 448 kts | 204° |
| 2026-04-22 11:07 | 45.86850 | 3.23035 | 37870 ft | 444 kts | 204° |
| 2026-04-22 11:07 | 45.83934 | 3.21665 | 37521 ft | 438 kts | 204° |
| 2026-04-22 11:07 | 45.81055 | 3.20315 | 37087 ft | 433 kts | 203° |
| 2026-04-22 11:08 | 45.78132 | 3.19285 | 36713 ft | 434 kts | 194° |
| 2026-04-22 11:08 | 45.75129 | 3.18946 | 36431 ft | 432 kts | 187° |
| 2026-04-22 11:08 | 45.72136 | 3.18880 | 36041 ft | 429 kts | 186° |
| 2026-04-22 11:08 | 45.69164 | 3.18855 | 35621 ft | 426 kts | 186° |
| 2026-04-22 11:09 | 45.66214 | 3.18829 | 35239 ft | 422 kts | 186° |
| 2026-04-22 11:09 | 45.63290 | 3.18790 | 34855 ft | 419 kts | 186° |
| 2026-04-22 11:09 | 45.60390 | 3.18737 | 34478 ft | 415 kts | 186° |
| 2026-04-22 11:09 | 45.57510 | 3.18675 | 34104 ft | 412 kts | 186° |
| 2026-04-22 11:10 | 45.54648 | 3.18607 | 33675 ft | 409 kts | 186° |
| 2026-04-22 11:10 | 45.51813 | 3.18536 | 33270 ft | 406 kts | 186° |
| 2026-04-22 11:10 | 45.48998 | 3.18465 | 32897 ft | 402 kts | 186° |
| 2026-04-22 11:10 | 45.46247 | 3.18395 | 32521 ft | 399 kts | 186° |
| 2026-04-22 11:11 | 45.43448 | 3.18325 | 32156 ft | 396 kts | 186° |
| 2026-04-22 11:11 | 45.40738 | 3.18256 | 31791 ft | 393 kts | 186° |
| 2026-04-22 11:11 | 45.37978 | 3.18187 | 31430 ft | 390 kts | 186° |
| 2026-04-22 11:11 | 45.35273 | 3.18119 | 31072 ft | 388 kts | 186° |
| 2026-04-22 11:12 | 45.32585 | 3.18052 | 30725 ft | 385 kts | 186° |
| 2026-04-22 11:12 | 45.29948 | 3.17986 | 30371 ft | 383 kts | 186° |
| 2026-04-22 11:12 | 45.27295 | 3.17920 | 30017 ft | 380 kts | 186° |
| 2026-04-22 11:12 | 45.24656 | 3.17855 | 29609 ft | 378 kts | 186° |
| 2026-04-22 11:13 | 45.22044 | 3.17791 | 29258 ft | 373 kts | 186° |
| 2026-04-22 11:13 | 45.19456 | 3.17727 | 28891 ft | 370 kts | 186° |
| 2026-04-22 11:13 | 45.16894 | 3.17661 | 28514 ft | 367 kts | 186° |
| 2026-04-22 11:13 | 45.14348 | 3.17598 | 28176 ft | 364 kts | 186° |
| 2026-04-22 11:14 | 45.11823 | 3.17537 | 27803 ft | 362 kts | 186° |
| 2026-04-22 11:14 | 45.09314 | 3.17463 | 27507 ft | 357 kts | 187° |
| 2026-04-22 11:14 | 45.06852 | 3.17338 | 27259 ft | 353 kts | 187° |
| 2026-04-22 11:14 | 45.04403 | 3.17191 | 26921 ft | 352 kts | 187° |
| 2026-04-22 11:15 | 45.01951 | 3.17045 | 26582 ft | 354 kts | 187° |
| 2026-04-22 11:15 | 44.99454 | 3.16901 | 26256 ft | 365 kts | 187° |
| 2026-04-22 11:15 | 44.96897 | 3.16759 | 25886 ft | 369 kts | 187° |
| 2026-04-22 11:15 | 44.94330 | 3.16642 | 25508 ft | 368 kts | 186° |
| 2026-04-22 11:16 | 44.91775 | 3.16594 | 25152 ft | 366 kts | 185° |
| 2026-04-22 11:16 | 44.89236 | 3.16571 | 24785 ft | 364 kts | 185° |
| 2026-04-22 11:16 | 44.86710 | 3.16550 | 24427 ft | 362 kts | 185° |
| 2026-04-22 11:16 | 44.84197 | 3.16525 | 24071 ft | 360 kts | 185° |
| 2026-04-22 11:17 | 44.81695 | 3.16496 | 23721 ft | 358 kts | 185° |
| 2026-04-22 11:17 | 44.79206 | 3.16464 | 23319 ft | 357 kts | 185° |
| 2026-04-22 11:17 | 44.76731 | 3.16430 | 22925 ft | 355 kts | 185° |
| 2026-04-22 11:17 | 44.74272 | 3.16395 | 22549 ft | 352 kts | 185° |
| 2026-04-22 11:18 | 44.71829 | 3.16360 | 22182 ft | 349 kts | 185° |
| 2026-04-22 11:18 | 44.69405 | 3.16325 | 21833 ft | 347 kts | 185° |
| 2026-04-22 11:18 | 44.67004 | 3.16290 | 21480 ft | 344 kts | 185° |
| 2026-04-22 11:18 | 44.64616 | 3.16256 | 21144 ft | 342 kts | 185° |
| 2026-04-22 11:19 | 44.62246 | 3.16222 | 20807 ft | 340 kts | 185° |
| 2026-04-22 11:19 | 44.59915 | 3.15954 | 20453 ft | 333 kts | 196° |
| 2026-04-22 11:19 | 44.57672 | 3.15213 | 20110 ft | 329 kts | 199° |
| 2026-04-22 11:19 | 44.55462 | 3.14408 | 19776 ft | 327 kts | 199° |
| 2026-04-22 11:20 | 44.53264 | 3.13596 | 19433 ft | 326 kts | 199° |
| 2026-04-22 11:20 | 44.51074 | 3.12792 | 19102 ft | 325 kts | 199° |
| 2026-04-22 11:20 | 44.48889 | 3.11999 | 18773 ft | 324 kts | 199° |
| 2026-04-22 11:20 | 44.46712 | 3.11216 | 18444 ft | 323 kts | 199° |
| 2026-04-22 11:21 | 44.44563 | 3.10448 | 18085 ft | 323 kts | 199° |
| 2026-04-22 11:21 | 44.42358 | 3.09664 | 17708 ft | 322 kts | 199° |
| 2026-04-22 11:21 | 44.40218 | 3.08905 | 17368 ft | 321 kts | 199° |
| 2026-04-22 11:21 | 44.38060 | 3.08142 | 17028 ft | 319 kts | 199° |
| 2026-04-22 11:22 | 44.35910 | 3.07383 | 16699 ft | 317 kts | 199° |
| 2026-04-22 11:22 | 44.33774 | 3.06630 | 16375 ft | 316 kts | 199° |
| 2026-04-22 11:22 | 44.31651 | 3.05882 | 16041 ft | 314 kts | 199° |
| 2026-04-22 11:22 | 44.29534 | 3.05135 | 15723 ft | 313 kts | 199° |
| 2026-04-22 11:23 | 44.27432 | 3.04395 | 15395 ft | 311 kts | 199° |
| 2026-04-22 11:23 | 44.25337 | 3.03658 | 15083 ft | 310 kts | 199° |
| 2026-04-22 11:23 | 44.23249 | 3.02923 | 14770 ft | 309 kts | 199° |
| 2026-04-22 11:23 | 44.21162 | 3.02189 | 14429 ft | 309 kts | 199° |
| 2026-04-22 11:24 | 44.19084 | 3.01460 | 14111 ft | 308 kts | 199° |
| 2026-04-22 11:24 | 44.17010 | 3.00732 | 13784 ft | 306 kts | 199° |
| 2026-04-22 11:24 | 44.14947 | 3.00008 | 13440 ft | 305 kts | 199° |
| 2026-04-22 11:24 | 44.12888 | 2.99288 | 13093 ft | 304 kts | 199° |
| 2026-04-22 11:25 | 44.10842 | 2.98571 | 12748 ft | 303 kts | 199° |
| 2026-04-22 11:25 | 44.08810 | 2.97858 | 12434 ft | 299 kts | 199° |
| 2026-04-22 11:25 | 44.06801 | 2.97157 | 12148 ft | 297 kts | 199° |
| 2026-04-22 11:25 | 44.04803 | 2.96456 | 11819 ft | 295 kts | 199° |
| 2026-04-22 11:26 | 44.02815 | 2.95763 | 11518 ft | 294 kts | 199° |
| 2026-04-22 11:26 | 44.00837 | 2.95071 | 11210 ft | 293 kts | 198° |
| 2026-04-22 11:26 | 43.98865 | 2.94380 | 10891 ft | 292 kts | 199° |
| 2026-04-22 11:26 | 43.96897 | 2.93691 | 10607 ft | 291 kts | 198° |
| 2026-04-22 11:27 | 43.95603 | 2.93239 | 10424 ft | 289 kts | 199° |
| 2026-04-22 11:27 | 43.93660 | 2.92561 | 10207 ft | 288 kts | 198° |
| 2026-04-22 11:27 | 43.91716 | 2.91882 | 9968 ft | 288 kts | 198° |
| 2026-04-22 11:27 | 43.89771 | 2.91205 | 9711 ft | 287 kts | 198° |
| 2026-04-22 11:28 | 43.87844 | 2.90533 | 9443 ft | 285 kts | 198° |
| 2026-04-22 11:28 | 43.85934 | 2.89867 | 9180 ft | 281 kts | 198° |
| 2026-04-22 11:28 | 43.84047 | 2.89211 | 8917 ft | 278 kts | 198° |
| 2026-04-22 11:28 | 43.82180 | 2.88563 | 8665 ft | 275 kts | 198° |
| 2026-04-22 11:29 | 43.80334 | 2.87921 | 8409 ft | 273 kts | 198° |
| 2026-04-22 11:29 | 43.78488 | 2.87344 | 8148 ft | 273 kts | 188° |
| 2026-04-22 11:29 | 43.76607 | 2.87730 | 7890 ft | 278 kts | 159° |
| 2026-04-22 11:29 | 43.74932 | 2.89055 | 7661 ft | 278 kts | 148° |
| 2026-04-22 11:30 | 43.73319 | 2.90565 | 7423 ft | 281 kts | 147° |
| 2026-04-22 11:30 | 43.71710 | 2.92106 | 7187 ft | 282 kts | 147° |
| 2026-04-22 11:30 | 43.70093 | 2.93650 | 6952 ft | 283 kts | 147° |
| 2026-04-22 11:30 | 43.68468 | 2.95190 | 6713 ft | 283 kts | 147° |
| 2026-04-22 11:31 | 43.66848 | 2.96716 | 6467 ft | 281 kts | 147° |
| 2026-04-22 11:31 | 43.65241 | 2.98222 | 6257 ft | 276 kts | 147° |
| 2026-04-22 11:31 | 43.63679 | 2.99683 | 6062 ft | 268 kts | 147° |
| 2026-04-22 11:31 | 43.62144 | 3.01115 | 5770 ft | 264 kts | 147° |
| 2026-04-22 11:32 | 43.60636 | 3.02517 | 5533 ft | 260 kts | 147° |
| 2026-04-22 11:32 | 43.59140 | 3.03907 | 5269 ft | 259 kts | 146° |
| 2026-04-22 11:32 | 43.57650 | 3.05290 | 4996 ft | 258 kts | 146° |
| 2026-04-22 11:32 | 43.56166 | 3.06668 | 4728 ft | 256 kts | 146° |
| 2026-04-22 11:33 | 43.54690 | 3.08037 | 4500 ft | 254 kts | 146° |
| 2026-04-22 11:33 | 43.53250 | 3.09372 | 4397 ft | 246 kts | 146° |
| 2026-04-22 11:33 | 43.51871 | 3.10649 | 4292 ft | 239 kts | 145° |
| 2026-04-22 11:33 | 43.50514 | 3.11903 | 4197 ft | 231 kts | 145° |
| 2026-04-22 11:34 | 43.49200 | 3.13117 | 4104 ft | 224 kts | 145° |
| 2026-04-22 11:34 | 43.48149 | 3.14602 | 3995 ft | 215 kts | 115° |
| 2026-04-22 11:34 | 43.47678 | 3.16522 | 3829 ft | 212 kts | 115° |
| 2026-04-22 11:34 | 43.46647 | 3.17881 | 3668 ft | 209 kts | 154° |
| 2026-04-22 11:35 | 43.45310 | 3.18684 | 3460 ft | 211 kts | 154° |
| 2026-04-22 11:35 | 43.43980 | 3.19558 | 3234 ft | 212 kts | 152° |
| 2026-04-22 11:35 | 43.42682 | 3.20471 | 3000 ft | 205 kts | 150° |
| 2026-04-22 11:35 | 43.41460 | 3.21370 | 2786 ft | 194 kts | 150° |
| 2026-04-22 11:36 | 43.40304 | 3.22245 | 2571 ft | 185 kts | 149° |
| 2026-04-22 11:36 | 43.39213 | 3.23093 | 2353 ft | 176 kts | 149° |
| 2026-04-22 11:36 | 43.38175 | 3.23913 | 2121 ft | 168 kts | 148° |
| 2026-04-22 11:36 | 43.37185 | 3.24704 | 2030 ft | 163 kts | 148° |
| 2026-04-22 11:37 | 43.36214 | 3.25480 | 1993 ft | 159 kts | 148° |
| 2026-04-22 11:37 | 43.35297 | 3.26217 | 2010 ft | 146 kts | 147° |
| 2026-04-22 11:37 | 43.34418 | 3.26924 | 1931 ft | 150 kts | 147° |
| 2026-04-22 11:37 | 43.33485 | 3.27698 | 1391 ft | 159 kts | 141° |
| 2026-04-22 11:38 | 43.32742 | 3.28795 | 871 ft | 153 kts | 117° |
| 2026-04-22 11:38 | 43.32581 | 3.30151 | 636 ft | 139 kts | 89° |
| 2026-04-22 11:38 | 43.32500 | 3.32658 | 293 ft | 133 kts | 95° |
| 2026-04-22 11:39 | 43.32426 | 3.33934 | 138 ft | 132 kts | 94° |
| 2026-04-22 11:39 | 43.32360 | 3.35108 | 56 ft | 104 kts | 94° |
| 2026-04-22 11:39 | 43.32332 | 3.35632 | 53 ft | 25 kts | 93° |
| 2026-04-22 11:39 | 43.32307 | 3.35783 | 48 ft | 12 kts | 110° |
| 2026-04-22 11:40 | 43.32331 | 3.35802 | 53 ft | 4 kts | 305° |
| 2026-04-22 11:40 | 43.32323 | 3.35748 | 50 ft | 11 kts | 258° |
| 2026-04-22 11:40 | 43.32331 | 3.35565 | 53 ft | 24 kts | 275° |
| 2026-04-22 11:40 | 43.32333 | 3.35362 | 52 ft | 13 kts | 242° |
| 2026-04-22 11:41 | 43.32263 | 3.35333 | 56 ft | 11 kts | 183° |
| 2026-04-22 11:41 | 43.32187 | 3.35339 | 49 ft | 11 kts | 141° |
| 2026-04-22 11:41 | 43.32166 | 3.35421 | 55 ft | 9 kts | 134° |
| 2026-04-22 11:41 | 43.32125 | 3.35424 | 54 ft | 2 kts | 233° |
| 2026-04-22 11:42 | 43.32129 | 3.35406 | 51 ft | 2 kts | 301° |
| 2026-04-22 11:42 | 43.32140 | 3.35387 | 55 ft | 1 kts | 308° |
| 2026-04-22 11:42 | 43.32140 | 3.35386 | 55 ft | 0 kts | 309° |